sensor_id;sensor_type;location;lat;lon;timestamp;P1;durP1;ratioP1;P2;durP2;ratioP2
10467;SDS011;5281;48.878;9.394;2022-08-18T00:01:53;5.85;;;5.25;;
10467;SDS011;5281;48.878;9.394;2022-08-18T00:04:26;6.47;;;4.97;;
10467;SDS011;5281;48.878;9.394;2022-08-18T00:06:52;6.28;;;5.70;;
10467;SDS011;5281;48.878;9.394;2022-08-18T00:09:21;6.68;;;5.30;;
10467;SDS011;5281;48.878;9.394;2022-08-18T00:11:48;6.25;;;5.65;;
10467;SDS011;5281;48.878;9.394;2022-08-18T00:14:16;6.07;;;5.55;;
10467;SDS011;5281;48.878;9.394;2022-08-18T00:16:44;6.20;;;5.60;;
10467;SDS011;5281;48.878;9.394;2022-08-18T00:19:11;6.38;;;5.70;;
10467;SDS011;5281;48.878;9.394;2022-08-18T00:21:38;7.60;;;6.45;;
10467;SDS011;5281;48.878;9.394;2022-08-18T00:24:05;7.78;;;6.25;;
10467;SDS011;5281;48.878;9.394;2022-08-18T00:26:34;11.10;;;7.25;;
10467;SDS011;5281;48.878;9.394;2022-08-18T00:29:00;9.20;;;6.75;;
10467;SDS011;5281;48.878;9.394;2022-08-18T00:31:27;7.65;;;6.95;;
10467;SDS011;5281;48.878;9.394;2022-08-18T00:33:55;6.88;;;6.22;;
10467;SDS011;5281;48.878;9.394;2022-08-18T00:36:22;7.55;;;6.85;;
10467;SDS011;5281;48.878;9.394;2022-08-18T00:38:49;7.80;;;7.00;;
10467;SDS011;5281;48.878;9.394;2022-08-18T00:41:16;7.25;;;6.50;;
10467;SDS011;5281;48.878;9.394;2022-08-18T00:43:46;7.78;;;6.63;;
10467;SDS011;5281;48.878;9.394;2022-08-18T00:46:15;10.10;;;6.57;;
10467;SDS011;5281;48.878;9.394;2022-08-18T00:48:44;7.80;;;6.85;;
10467;SDS011;5281;48.878;9.394;2022-08-18T00:51:12;7.13;;;6.43;;
10467;SDS011;5281;48.878;9.394;2022-08-18T00:53:43;8.20;;;7.28;;
10467;SDS011;5281;48.878;9.394;2022-08-18T00:56:14;7.72;;;6.85;;
10467;SDS011;5281;48.878;9.394;2022-08-18T00:58:49;7.18;;;6.25;;
10467;SDS011;5281;48.878;9.394;2022-08-18T01:01:21;9.77;;;7.30;;
10467;SDS011;5281;48.878;9.394;2022-08-18T01:03:49;6.75;;;6.15;;
10467;SDS011;5281;48.878;9.394;2022-08-18T01:06:23;7.07;;;6.32;;
10467;SDS011;5281;48.878;9.394;2022-08-18T01:08:53;6.40;;;5.75;;
10467;SDS011;5281;48.878;9.394;2022-08-18T01:11:21;7.13;;;6.03;;
10467;SDS011;5281;48.878;9.394;2022-08-18T01:13:49;7.30;;;6.50;;
10467;SDS011;5281;48.878;9.394;2022-08-18T01:16:18;8.45;;;5.90;;
10467;SDS011;5281;48.878;9.394;2022-08-18T01:19:02;7.80;;;5.68;;
10467;SDS011;5281;48.878;9.394;2022-08-18T01:21:48;7.60;;;6.03;;
10467;SDS011;5281;48.878;9.394;2022-08-18T01:24:23;7.60;;;5.88;;
10467;SDS011;5281;48.878;9.394;2022-08-18T01:27:06;6.50;;;5.57;;
10467;SDS011;5281;48.878;9.394;2022-08-18T01:29:34;6.45;;;5.85;;
10467;SDS011;5281;48.878;9.394;2022-08-18T01:32:01;7.50;;;6.10;;
10467;SDS011;5281;48.878;9.394;2022-08-18T01:34:28;7.50;;;6.30;;
10467;SDS011;5281;48.878;9.394;2022-08-18T01:36:55;6.68;;;6.07;;
10467;SDS011;5281;48.878;9.394;2022-08-18T01:39:24;7.68;;;6.88;;
10467;SDS011;5281;48.878;9.394;2022-08-18T01:41:51;8.38;;;6.45;;
10467;SDS011;5281;48.878;9.394;2022-08-18T01:44:18;7.55;;;6.63;;
10467;SDS011;5281;48.878;9.394;2022-08-18T01:46:45;8.10;;;6.50;;
10467;SDS011;5281;48.878;9.394;2022-08-18T01:49:12;10.30;;;6.60;;
10467;SDS011;5281;48.878;9.394;2022-08-18T01:51:39;7.15;;;6.43;;
10467;SDS011;5281;48.878;9.394;2022-08-18T01:54:08;7.65;;;6.55;;
10467;SDS011;5281;48.878;9.394;2022-08-18T01:56:37;7.82;;;7.10;;
10467;SDS011;5281;48.878;9.394;2022-08-18T01:59:06;8.05;;;6.60;;
10467;SDS011;5281;48.878;9.394;2022-08-18T02:01:39;10.63;;;6.95;;
10467;SDS011;5281;48.878;9.394;2022-08-18T02:04:08;7.72;;;6.95;;
10467;SDS011;5281;48.878;9.394;2022-08-18T02:06:36;8.10;;;7.30;;
10467;SDS011;5281;48.878;9.394;2022-08-18T02:09:03;7.72;;;6.55;;
10467;SDS011;5281;48.878;9.394;2022-08-18T02:11:31;8.07;;;7.28;;
10467;SDS011;5281;48.878;9.394;2022-08-18T02:13:59;7.63;;;6.93;;
10467;SDS011;5281;48.878;9.394;2022-08-18T02:16:26;8.45;;;7.45;;
10467;SDS011;5281;48.878;9.394;2022-08-18T02:18:53;8.52;;;7.53;;
10467;SDS011;5281;48.878;9.394;2022-08-18T02:21:20;8.25;;;7.38;;
10467;SDS011;5281;48.878;9.394;2022-08-18T02:23:47;10.07;;;8.35;;
10467;SDS011;5281;48.878;9.394;2022-08-18T02:26:16;9.43;;;8.52;;
10467;SDS011;5281;48.878;9.394;2022-08-18T02:28:43;9.52;;;7.50;;
10467;SDS011;5281;48.878;9.394;2022-08-18T02:31:14;9.95;;;7.10;;
10467;SDS011;5281;48.878;9.394;2022-08-18T02:33:43;9.70;;;8.35;;
10467;SDS011;5281;48.878;9.394;2022-08-18T02:36:11;8.10;;;7.22;;
10467;SDS011;5281;48.878;9.394;2022-08-18T02:38:39;7.90;;;7.15;;
10467;SDS011;5281;48.878;9.394;2022-08-18T02:41:07;13.07;;;11.68;;
10467;SDS011;5281;48.878;9.394;2022-08-18T02:43:35;9.90;;;8.90;;
10467;SDS011;5281;48.878;9.394;2022-08-18T02:46:03;8.43;;;7.53;;
10467;SDS011;5281;48.878;9.394;2022-08-18T02:48:32;10.25;;;8.30;;
10467;SDS011;5281;48.878;9.394;2022-08-18T02:53:27;10.98;;;9.68;;
10467;SDS011;5281;48.878;9.394;2022-08-18T02:55:55;12.60;;;11.30;;
10467;SDS011;5281;48.878;9.394;2022-08-18T02:58:33;8.35;;;7.55;;
10467;SDS011;5281;48.878;9.394;2022-08-18T03:01:00;8.20;;;7.43;;
10467;SDS011;5281;48.878;9.394;2022-08-18T03:03:27;8.05;;;6.78;;
10467;SDS011;5281;48.878;9.394;2022-08-18T03:05:57;7.68;;;6.97;;
10467;SDS011;5281;48.878;9.394;2022-08-18T03:08:24;7.88;;;7.18;;
10467;SDS011;5281;48.878;9.394;2022-08-18T03:10:51;7.75;;;7.05;;
10467;SDS011;5281;48.878;9.394;2022-08-18T03:13:18;8.40;;;7.60;;
10467;SDS011;5281;48.878;9.394;2022-08-18T03:15:45;9.43;;;7.32;;
10467;SDS011;5281;48.878;9.394;2022-08-18T03:18:12;7.97;;;7.18;;
10467;SDS011;5281;48.878;9.394;2022-08-18T03:20:40;11.20;;;6.78;;
10467;SDS011;5281;48.878;9.394;2022-08-18T03:23:09;6.88;;;6.25;;
10467;SDS011;5281;48.878;9.394;2022-08-18T03:25:41;9.60;;;8.38;;
10467;SDS011;5281;48.878;9.394;2022-08-18T03:28:09;7.50;;;6.22;;
10467;SDS011;5281;48.878;9.394;2022-08-18T03:30:37;10.40;;;7.55;;
10467;SDS011;5281;48.878;9.394;2022-08-18T03:33:03;8.05;;;6.40;;
10467;SDS011;5281;48.878;9.394;2022-08-18T03:35:30;7.93;;;7.05;;
10467;SDS011;5281;48.878;9.394;2022-08-18T03:38:00;10.45;;;6.38;;
10467;SDS011;5281;48.878;9.394;2022-08-18T03:40:28;8.18;;;7.45;;
10467;SDS011;5281;48.878;9.394;2022-08-18T03:42:55;9.70;;;7.78;;
10467;SDS011;5281;48.878;9.394;2022-08-18T03:45:22;8.95;;;8.02;;
10467;SDS011;5281;48.878;9.394;2022-08-18T03:47:52;9.05;;;8.10;;
10467;SDS011;5281;48.878;9.394;2022-08-18T03:50:19;9.75;;;8.85;;
10467;SDS011;5281;48.878;9.394;2022-08-18T03:52:49;14.70;;;10.25;;
10467;SDS011;5281;48.878;9.394;2022-08-18T03:55:16;9.23;;;8.25;;
10467;SDS011;5281;48.878;9.394;2022-08-18T03:57:45;11.07;;;8.93;;
10467;SDS011;5281;48.878;9.394;2022-08-18T04:00:12;9.07;;;8.07;;
10467;SDS011;5281;48.878;9.394;2022-08-18T04:02:39;9.90;;;8.90;;
10467;SDS011;5281;48.878;9.394;2022-08-18T04:05:06;10.35;;;9.38;;
10467;SDS011;5281;48.878;9.394;2022-08-18T04:07:36;9.38;;;8.57;;
10467;SDS011;5281;48.878;9.394;2022-08-18T04:10:03;10.82;;;9.73;;
10467;SDS011;5281;48.878;9.394;2022-08-18T04:12:31;10.80;;;9.70;;
10467;SDS011;5281;48.878;9.394;2022-08-18T04:14:59;11.93;;;10.00;;
10467;SDS011;5281;48.878;9.394;2022-08-18T04:17:26;10.57;;;9.57;;
10467;SDS011;5281;48.878;9.394;2022-08-18T04:19:54;11.77;;;10.57;;
10467;SDS011;5281;48.878;9.394;2022-08-18T04:22:22;11.57;;;10.40;;
10467;SDS011;5281;48.878;9.394;2022-08-18T04:24:50;9.93;;;9.02;;
10467;SDS011;5281;48.878;9.394;2022-08-18T04:27:18;9.70;;;8.80;;
10467;SDS011;5281;48.878;9.394;2022-08-18T04:29:46;8.23;;;7.45;;
10467;SDS011;5281;48.878;9.394;2022-08-18T04:32:14;8.05;;;7.28;;
10467;SDS011;5281;48.878;9.394;2022-08-18T04:34:41;8.35;;;7.45;;
10467;SDS011;5281;48.878;9.394;2022-08-18T04:37:08;8.20;;;7.50;;
10467;SDS011;5281;48.878;9.394;2022-08-18T04:39:35;7.90;;;7.18;;
10467;SDS011;5281;48.878;9.394;2022-08-18T04:42:02;7.25;;;6.65;;
10467;SDS011;5281;48.878;9.394;2022-08-18T04:44:29;7.97;;;7.18;;
10467;SDS011;5281;48.878;9.394;2022-08-18T04:46:56;7.72;;;6.97;;
10467;SDS011;5281;48.878;9.394;2022-08-18T04:49:27;9.57;;;7.47;;
10467;SDS011;5281;48.878;9.394;2022-08-18T04:51:56;7.55;;;6.70;;
10467;SDS011;5281;48.878;9.394;2022-08-18T04:54:40;7.25;;;6.65;;
10467;SDS011;5281;48.878;9.394;2022-08-18T04:57:08;7.90;;;7.05;;
10467;SDS011;5281;48.878;9.394;2022-08-18T04:59:37;10.10;;;6.57;;
10467;SDS011;5281;48.878;9.394;2022-08-18T05:02:05;11.75;;;10.55;;
10467;SDS011;5281;48.878;9.394;2022-08-18T05:04:34;7.07;;;6.38;;
10467;SDS011;5281;48.878;9.394;2022-08-18T05:07:03;8.18;;;7.38;;
10467;SDS011;5281;48.878;9.394;2022-08-18T05:09:30;7.15;;;6.47;;
10467;SDS011;5281;48.878;9.394;2022-08-18T05:11:57;8.15;;;6.93;;
10467;SDS011;5281;48.878;9.394;2022-08-18T05:14:24;6.97;;;6.35;;
10467;SDS011;5281;48.878;9.394;2022-08-18T05:16:51;6.97;;;6.13;;
10467;SDS011;5281;48.878;9.394;2022-08-18T05:19:18;7.45;;;6.00;;
10467;SDS011;5281;48.878;9.394;2022-08-18T05:21:48;7.05;;;6.30;;
10467;SDS011;5281;48.878;9.394;2022-08-18T05:24:16;6.57;;;5.90;;
10467;SDS011;5281;48.878;9.394;2022-08-18T05:26:43;7.18;;;6.05;;
10467;SDS011;5281;48.878;9.394;2022-08-18T05:29:10;6.95;;;6.25;;
10467;SDS011;5281;48.878;9.394;2022-08-18T05:31:37;7.13;;;6.40;;
10467;SDS011;5281;48.878;9.394;2022-08-18T05:34:04;8.10;;;6.05;;
10467;SDS011;5281;48.878;9.394;2022-08-18T05:36:42;6.85;;;6.25;;
10467;SDS011;5281;48.878;9.394;2022-08-18T05:39:20;6.85;;;5.90;;
10467;SDS011;5281;48.878;9.394;2022-08-18T05:41:50;7.45;;;6.60;;
10467;SDS011;5281;48.878;9.394;2022-08-18T05:44:22;7.20;;;6.40;;
10467;SDS011;5281;48.878;9.394;2022-08-18T05:46:52;7.38;;;5.97;;
10467;SDS011;5281;48.878;9.394;2022-08-18T05:49:21;8.32;;;5.80;;
10467;SDS011;5281;48.878;9.394;2022-08-18T05:51:52;6.18;;;5.57;;
10467;SDS011;5281;48.878;9.394;2022-08-18T05:54:22;6.45;;;5.85;;
10467;SDS011;5281;48.878;9.394;2022-08-18T05:57:09;5.97;;;5.40;;
10467;SDS011;5281;48.878;9.394;2022-08-18T05:59:40;6.50;;;5.40;;
10467;SDS011;5281;48.878;9.394;2022-08-18T06:02:10;9.05;;;5.53;;
10467;SDS011;5281;48.878;9.394;2022-08-18T06:04:43;6.15;;;5.55;;
10467;SDS011;5281;48.878;9.394;2022-08-18T06:07:16;7.45;;;5.07;;
10467;SDS011;5281;48.878;9.394;2022-08-18T06:09:50;6.70;;;5.10;;
10467;SDS011;5281;48.878;9.394;2022-08-18T06:12:20;5.20;;;4.55;;
10467;SDS011;5281;48.878;9.394;2022-08-18T06:14:52;6.40;;;4.80;;
10467;SDS011;5281;48.878;9.394;2022-08-18T06:17:31;5.07;;;4.57;;
10467;SDS011;5281;48.878;9.394;2022-08-18T06:20:06;6.38;;;4.25;;
10467;SDS011;5281;48.878;9.394;2022-08-18T06:22:42;6.85;;;4.82;;
10467;SDS011;5281;48.878;9.394;2022-08-18T06:25:19;5.68;;;5.07;;
10467;SDS011;5281;48.878;9.394;2022-08-18T06:27:52;8.35;;;5.05;;
10467;SDS011;5281;48.878;9.394;2022-08-18T06:30:28;5.20;;;4.75;;
10467;SDS011;5281;48.878;9.394;2022-08-18T06:33:09;5.68;;;4.88;;
10467;SDS011;5281;48.878;9.394;2022-08-18T06:35:54;6.03;;;5.32;;
10467;SDS011;5281;48.878;9.394;2022-08-18T06:38:34;6.70;;;5.15;;
10467;SDS011;5281;48.878;9.394;2022-08-18T06:41:13;5.38;;;4.85;;
10467;SDS011;5281;48.878;9.394;2022-08-18T06:43:49;4.93;;;4.40;;
10467;SDS011;5281;48.878;9.394;2022-08-18T06:46:25;5.70;;;4.88;;
10467;SDS011;5281;48.878;9.394;2022-08-18T06:48:59;4.75;;;4.28;;
10467;SDS011;5281;48.878;9.394;2022-08-18T06:51:29;5.43;;;4.93;;
10467;SDS011;5281;48.878;9.394;2022-08-18T06:53:59;5.72;;;5.22;;
10467;SDS011;5281;48.878;9.394;2022-08-18T06:56:31;8.05;;;5.32;;
10467;SDS011;5281;48.878;9.394;2022-08-18T06:59:22;7.97;;;5.70;;
10467;SDS011;5281;48.878;9.394;2022-08-18T07:01:52;7.00;;;5.07;;
10467;SDS011;5281;48.878;9.394;2022-08-18T07:04:32;7.40;;;5.57;;
10467;SDS011;5281;48.878;9.394;2022-08-18T07:07:29;7.28;;;5.80;;
10467;SDS011;5281;48.878;9.394;2022-08-18T07:10:02;6.95;;;5.43;;
10467;SDS011;5281;48.878;9.394;2022-08-18T07:12:30;7.00;;;5.82;;
10467;SDS011;5281;48.878;9.394;2022-08-18T07:14:59;7.55;;;5.28;;
10467;SDS011;5281;48.878;9.394;2022-08-18T07:17:28;5.93;;;5.22;;
10467;SDS011;5281;48.878;9.394;2022-08-18T07:19:59;6.10;;;5.53;;
10467;SDS011;5281;48.878;9.394;2022-08-18T07:22:29;10.90;;;5.53;;
10467;SDS011;5281;48.878;9.394;2022-08-18T07:24:57;6.65;;;5.93;;
10467;SDS011;5281;48.878;9.394;2022-08-18T07:27:41;6.72;;;5.97;;
10467;SDS011;5281;48.878;9.394;2022-08-18T07:30:11;5.75;;;5.20;;
10467;SDS011;5281;48.878;9.394;2022-08-18T07:32:41;5.95;;;5.43;;
10467;SDS011;5281;48.878;9.394;2022-08-18T07:35:12;6.90;;;6.20;;
10467;SDS011;5281;48.878;9.394;2022-08-18T07:37:44;6.00;;;5.47;;
10467;SDS011;5281;48.878;9.394;2022-08-18T07:40:19;6.00;;;5.40;;
10467;SDS011;5281;48.878;9.394;2022-08-18T07:42:53;7.45;;;5.47;;
10467;SDS011;5281;48.878;9.394;2022-08-18T07:45:26;7.85;;;5.22;;
10467;SDS011;5281;48.878;9.394;2022-08-18T07:47:59;8.00;;;5.70;;
10467;SDS011;5281;48.878;9.394;2022-08-18T07:50:32;6.07;;;5.55;;
10467;SDS011;5281;48.878;9.394;2022-08-18T07:53:06;8.30;;;5.38;;
10467;SDS011;5281;48.878;9.394;2022-08-18T07:55:40;6.70;;;5.30;;
10467;SDS011;5281;48.878;9.394;2022-08-18T07:58:19;8.90;;;5.35;;
10467;SDS011;5281;48.878;9.394;2022-08-18T08:00:53;5.88;;;4.90;;
10467;SDS011;5281;48.878;9.394;2022-08-18T08:03:27;5.70;;;5.00;;
10467;SDS011;5281;48.878;9.394;2022-08-18T08:06:04;5.82;;;4.47;;
10467;SDS011;5281;48.878;9.394;2022-08-18T08:08:39;5.60;;;4.88;;
10467;SDS011;5281;48.878;9.394;2022-08-18T08:11:12;6.63;;;5.25;;
10467;SDS011;5281;48.878;9.394;2022-08-18T08:13:57;6.43;;;4.80;;
10467;SDS011;5281;48.878;9.394;2022-08-18T08:16:44;6.80;;;4.93;;
10467;SDS011;5281;48.878;9.394;2022-08-18T08:19:19;5.72;;;4.90;;
10467;SDS011;5281;48.878;9.394;2022-08-18T08:22:02;5.78;;;4.82;;
10467;SDS011;5281;48.878;9.394;2022-08-18T08:24:34;5.45;;;4.82;;
10467;SDS011;5281;48.878;9.394;2022-08-18T08:27:08;5.35;;;4.90;;
10467;SDS011;5281;48.878;9.394;2022-08-18T08:29:45;6.15;;;5.45;;
10467;SDS011;5281;48.878;9.394;2022-08-18T08:32:20;6.05;;;5.45;;
10467;SDS011;5281;48.878;9.394;2022-08-18T08:34:55;5.95;;;5.35;;
10467;SDS011;5281;48.878;9.394;2022-08-18T08:37:29;6.28;;;5.55;;
10467;SDS011;5281;48.878;9.394;2022-08-18T08:40:04;5.82;;;5.30;;
10467;SDS011;5281;48.878;9.394;2022-08-18T08:42:36;7.15;;;6.00;;
10467;SDS011;5281;48.878;9.394;2022-08-18T08:45:10;7.05;;;5.35;;
10467;SDS011;5281;48.878;9.394;2022-08-18T08:47:42;7.60;;;5.85;;
10467;SDS011;5281;48.878;9.394;2022-08-18T08:50:17;9.38;;;6.03;;
10467;SDS011;5281;48.878;9.394;2022-08-18T08:52:48;6.97;;;5.80;;
10467;SDS011;5281;48.878;9.394;2022-08-18T08:55:19;6.20;;;5.63;;
10467;SDS011;5281;48.878;9.394;2022-08-18T08:57:50;7.35;;;6.30;;
10467;SDS011;5281;48.878;9.394;2022-08-18T09:00:23;9.30;;;6.68;;
10467;SDS011;5281;48.878;9.394;2022-08-18T09:02:56;8.27;;;6.57;;
10467;SDS011;5281;48.878;9.394;2022-08-18T09:05:34;9.85;;;6.53;;
10467;SDS011;5281;48.878;9.394;2022-08-18T09:08:12;8.38;;;6.28;;
10467;SDS011;5281;48.878;9.394;2022-08-18T09:11:12;6.72;;;5.90;;
10467;SDS011;5281;48.878;9.394;2022-08-18T09:13:52;6.60;;;5.68;;
10467;SDS011;5281;48.878;9.394;2022-08-18T09:16:42;5.82;;;4.78;;
10467;SDS011;5281;48.878;9.394;2022-08-18T09:19:26;5.90;;;5.38;;
10467;SDS011;5281;48.878;9.394;2022-08-18T09:22:14;7.35;;;5.75;;
10467;SDS011;5281;48.878;9.394;2022-08-18T09:24:46;6.45;;;5.80;;
10467;SDS011;5281;48.878;9.394;2022-08-18T09:27:23;6.82;;;6.13;;
10467;SDS011;5281;48.878;9.394;2022-08-18T09:29:58;6.18;;;5.65;;
10467;SDS011;5281;48.878;9.394;2022-08-18T09:32:47;6.32;;;5.22;;
10467;SDS011;5281;48.878;9.394;2022-08-18T09:35:34;6.20;;;5.60;;
10467;SDS011;5281;48.878;9.394;2022-08-18T09:38:18;6.07;;;5.38;;
10467;SDS011;5281;48.878;9.394;2022-08-18T09:41:07;8.27;;;6.00;;
10467;SDS011;5281;48.878;9.394;2022-08-18T09:43:56;12.88;;;6.47;;
10467;SDS011;5281;48.878;9.394;2022-08-18T09:58:20;6.95;;;5.68;;
10467;SDS011;5281;48.878;9.394;2022-08-18T10:01:18;7.63;;;6.68;;
10467;SDS011;5281;48.878;9.394;2022-08-18T10:06:46;6.25;;;5.60;;
10467;SDS011;5281;48.878;9.394;2022-08-18T10:09:15;6.50;;;5.95;;
10467;SDS011;5281;48.878;9.394;2022-08-18T10:12:11;6.55;;;5.85;;
10467;SDS011;5281;48.878;9.394;2022-08-18T10:14:57;7.13;;;5.75;;
10467;SDS011;5281;48.878;9.394;2022-08-18T10:17:42;8.02;;;7.30;;
10467;SDS011;5281;48.878;9.394;2022-08-18T10:20:24;8.60;;;7.30;;
10467;SDS011;5281;48.878;9.394;2022-08-18T10:23:04;9.93;;;6.50;;
10467;SDS011;5281;48.878;9.394;2022-08-18T10:25:33;7.03;;;5.93;;
10467;SDS011;5281;48.878;9.394;2022-08-18T10:28:03;7.43;;;6.72;;
10467;SDS011;5281;48.878;9.394;2022-08-18T10:30:45;7.50;;;6.53;;
10467;SDS011;5281;48.878;9.394;2022-08-18T10:36:45;7.70;;;6.97;;
10467;SDS011;5281;48.878;9.394;2022-08-18T10:39:18;7.30;;;6.45;;
10467;SDS011;5281;48.878;9.394;2022-08-18T10:41:59;8.13;;;7.32;;
10467;SDS011;5281;48.878;9.394;2022-08-18T10:44:31;10.70;;;6.93;;
10467;SDS011;5281;48.878;9.394;2022-08-18T10:47:02;8.20;;;6.78;;
10467;SDS011;5281;48.878;9.394;2022-08-18T10:49:30;7.30;;;6.53;;
10467;SDS011;5281;48.878;9.394;2022-08-18T10:58:07;9.05;;;6.50;;
10467;SDS011;5281;48.878;9.394;2022-08-18T11:00:50;9.23;;;7.55;;
10467;SDS011;5281;48.878;9.394;2022-08-18T11:03:31;8.98;;;7.18;;
10467;SDS011;5281;48.878;9.394;2022-08-18T11:06:15;8.10;;;7.28;;
10467;SDS011;5281;48.878;9.394;2022-08-18T11:08:49;7.18;;;6.47;;
10467;SDS011;5281;48.878;9.394;2022-08-18T11:11:21;7.70;;;6.78;;
10467;SDS011;5281;48.878;9.394;2022-08-18T11:13:54;7.45;;;6.47;;
10467;SDS011;5281;48.878;9.394;2022-08-18T11:16:31;10.13;;;6.82;;
10467;SDS011;5281;48.878;9.394;2022-08-18T11:19:08;7.65;;;6.65;;
10467;SDS011;5281;48.878;9.394;2022-08-18T11:21:39;10.10;;;6.57;;
10467;SDS011;5281;48.878;9.394;2022-08-18T11:24:08;6.72;;;6.10;;
10467;SDS011;5281;48.878;9.394;2022-08-18T11:26:44;6.82;;;6.13;;
10467;SDS011;5281;48.878;9.394;2022-08-18T11:29:21;8.75;;;5.80;;
10467;SDS011;5281;48.878;9.394;2022-08-18T11:31:51;6.50;;;5.80;;
10467;SDS011;5281;48.878;9.394;2022-08-18T11:34:24;6.70;;;5.95;;
10467;SDS011;5281;48.878;9.394;2022-08-18T11:36:57;6.97;;;5.70;;
10467;SDS011;5281;48.878;9.394;2022-08-18T11:39:25;6.65;;;6.00;;
10467;SDS011;5281;48.878;9.394;2022-08-18T11:41:54;6.75;;;5.45;;
10467;SDS011;5281;48.878;9.394;2022-08-18T11:44:28;6.80;;;6.10;;
10467;SDS011;5281;48.878;9.394;2022-08-18T11:47:07;9.52;;;5.88;;
10467;SDS011;5281;48.878;9.394;2022-08-18T11:49:44;7.13;;;5.82;;
10467;SDS011;5281;48.878;9.394;2022-08-18T11:52:18;7.70;;;5.50;;
10467;SDS011;5281;48.878;9.394;2022-08-18T11:54:49;6.57;;;5.70;;
10467;SDS011;5281;48.878;9.394;2022-08-18T11:57:30;6.57;;;5.70;;
10467;SDS011;5281;48.878;9.394;2022-08-18T12:03:07;7.78;;;5.60;;
10467;SDS011;5281;48.878;9.394;2022-08-18T12:05:43;6.13;;;5.53;;
10467;SDS011;5281;48.878;9.394;2022-08-18T12:08:21;7.35;;;5.38;;
10467;SDS011;5281;48.878;9.394;2022-08-18T12:11:00;5.65;;;5.10;;
10467;SDS011;5281;48.878;9.394;2022-08-18T12:13:33;7.65;;;5.43;;
10467;SDS011;5281;48.878;9.394;2022-08-18T12:16:07;6.40;;;5.80;;
10467;SDS011;5281;48.878;9.394;2022-08-18T12:18:40;5.97;;;5.47;;
10467;SDS011;5281;48.878;9.394;2022-08-18T12:21:07;9.18;;;6.18;;
10467;SDS011;5281;48.878;9.394;2022-08-18T12:23:36;5.90;;;5.30;;
10467;SDS011;5281;48.878;9.394;2022-08-18T12:26:05;6.30;;;5.70;;
10467;SDS011;5281;48.878;9.394;2022-08-18T12:28:34;7.82;;;6.03;;
10467;SDS011;5281;48.878;9.394;2022-08-18T12:31:01;11.25;;;6.10;;
10467;SDS011;5281;48.878;9.394;2022-08-18T12:33:28;6.70;;;6.00;;
10467;SDS011;5281;48.878;9.394;2022-08-18T12:35:55;7.70;;;5.93;;
10467;SDS011;5281;48.878;9.394;2022-08-18T12:38:22;7.60;;;6.00;;
10467;SDS011;5281;48.878;9.394;2022-08-18T12:40:49;8.20;;;5.53;;
10467;SDS011;5281;48.878;9.394;2022-08-18T12:43:16;7.43;;;5.55;;
10467;SDS011;5281;48.878;9.394;2022-08-18T12:45:44;7.35;;;5.60;;
10467;SDS011;5281;48.878;9.394;2022-08-18T12:48:11;9.52;;;6.07;;
10467;SDS011;5281;48.878;9.394;2022-08-18T12:50:39;9.90;;;5.32;;
10467;SDS011;5281;48.878;9.394;2022-08-18T12:53:07;6.78;;;5.45;;
10467;SDS011;5281;48.878;9.394;2022-08-18T12:55:35;5.85;;;4.95;;
10467;SDS011;5281;48.878;9.394;2022-08-18T12:58:05;5.38;;;4.82;;
10467;SDS011;5281;48.878;9.394;2022-08-18T13:00:32;6.15;;;4.72;;
10467;SDS011;5281;48.878;9.394;2022-08-18T13:03:01;5.13;;;4.43;;
10467;SDS011;5281;48.878;9.394;2022-08-18T13:05:28;5.93;;;5.20;;
10467;SDS011;5281;48.878;9.394;2022-08-18T13:07:55;6.25;;;4.68;;
10467;SDS011;5281;48.878;9.394;2022-08-18T13:10:25;5.35;;;4.28;;
10467;SDS011;5281;48.878;9.394;2022-08-18T13:12:52;5.57;;;4.90;;
10467;SDS011;5281;48.878;9.394;2022-08-18T13:15:19;7.07;;;4.95;;
10467;SDS011;5281;48.878;9.394;2022-08-18T13:17:46;5.38;;;4.70;;
10467;SDS011;5281;48.878;9.394;2022-08-18T13:20:15;5.55;;;4.60;;
10467;SDS011;5281;48.878;9.394;2022-08-18T13:22:42;5.68;;;5.05;;
10467;SDS011;5281;48.878;9.394;2022-08-18T13:25:10;6.10;;;5.20;;
10467;SDS011;5281;48.878;9.394;2022-08-18T13:27:39;5.10;;;4.60;;
10467;SDS011;5281;48.878;9.394;2022-08-18T13:30:07;5.30;;;4.80;;
10467;SDS011;5281;48.878;9.394;2022-08-18T13:32:35;5.32;;;4.82;;
10467;SDS011;5281;48.878;9.394;2022-08-18T13:35:02;8.63;;;5.35;;
10467;SDS011;5281;48.878;9.394;2022-08-18T13:37:31;5.43;;;4.85;;
10467;SDS011;5281;48.878;9.394;2022-08-18T13:39:58;5.15;;;4.63;;
10467;SDS011;5281;48.878;9.394;2022-08-18T13:42:25;5.20;;;4.70;;
10467;SDS011;5281;48.878;9.394;2022-08-18T13:44:53;5.25;;;4.60;;
10467;SDS011;5281;48.878;9.394;2022-08-18T13:47:21;5.65;;;4.70;;
10467;SDS011;5281;48.878;9.394;2022-08-18T13:49:53;7.55;;;4.85;;
10467;SDS011;5281;48.878;9.394;2022-08-18T13:52:20;8.00;;;4.88;;
10467;SDS011;5281;48.878;9.394;2022-08-18T13:54:48;5.22;;;4.35;;
10467;SDS011;5281;48.878;9.394;2022-08-18T13:57:15;5.70;;;4.57;;
10467;SDS011;5281;48.878;9.394;2022-08-18T13:59:42;4.90;;;3.80;;
10467;SDS011;5281;48.878;9.394;2022-08-18T14:02:09;5.78;;;3.88;;
10467;SDS011;5281;48.878;9.394;2022-08-18T14:04:36;7.25;;;4.53;;
10467;SDS011;5281;48.878;9.394;2022-08-18T14:07:04;5.57;;;4.35;;
10467;SDS011;5281;48.878;9.394;2022-08-18T14:09:33;4.47;;;4.07;;
10467;SDS011;5281;48.878;9.394;2022-08-18T14:12:02;4.55;;;4.10;;
10467;SDS011;5281;48.878;9.394;2022-08-18T14:14:31;6.57;;;4.32;;
10467;SDS011;5281;48.878;9.394;2022-08-18T14:16:58;5.45;;;4.43;;
10467;SDS011;5281;48.878;9.394;2022-08-18T14:19:25;5.07;;;3.75;;
10467;SDS011;5281;48.878;9.394;2022-08-18T14:22:09;6.57;;;4.35;;
10467;SDS011;5281;48.878;9.394;2022-08-18T14:24:51;7.10;;;4.30;;
10467;SDS011;5281;48.878;9.394;2022-08-18T14:27:37;5.72;;;4.18;;
10467;SDS011;5281;48.878;9.394;2022-08-18T14:30:05;7.07;;;4.53;;
10467;SDS011;5281;48.878;9.394;2022-08-18T14:32:34;8.90;;;4.53;;
10467;SDS011;5281;48.878;9.394;2022-08-18T14:35:01;7.95;;;4.38;;
10467;SDS011;5281;48.878;9.394;2022-08-18T14:37:30;4.75;;;4.03;;
10467;SDS011;5281;48.878;9.394;2022-08-18T14:39:57;8.68;;;4.90;;
10467;SDS011;5281;48.878;9.394;2022-08-18T14:42:24;4.72;;;4.15;;
10467;SDS011;5281;48.878;9.394;2022-08-18T14:44:53;4.32;;;3.83;;
10467;SDS011;5281;48.878;9.394;2022-08-18T14:47:21;4.50;;;4.10;;
10467;SDS011;5281;48.878;9.394;2022-08-18T14:49:51;6.88;;;4.10;;
10467;SDS011;5281;48.878;9.394;2022-08-18T14:52:18;4.75;;;4.05;;
10467;SDS011;5281;48.878;9.394;2022-08-18T14:54:46;5.47;;;4.05;;
10467;SDS011;5281;48.878;9.394;2022-08-18T14:57:13;5.45;;;4.13;;
10467;SDS011;5281;48.878;9.394;2022-08-18T14:59:40;8.05;;;5.55;;
10467;SDS011;5281;48.878;9.394;2022-08-18T15:02:09;5.95;;;4.13;;
10467;SDS011;5281;48.878;9.394;2022-08-18T15:04:36;4.80;;;4.30;;
10467;SDS011;5281;48.878;9.394;2022-08-18T15:07:04;5.68;;;4.40;;
10467;SDS011;5281;48.878;9.394;2022-08-18T15:09:31;5.07;;;4.15;;
10467;SDS011;5281;48.878;9.394;2022-08-18T15:11:58;5.45;;;4.40;;
10467;SDS011;5281;48.878;9.394;2022-08-18T15:14:28;6.45;;;4.30;;
10467;SDS011;5281;48.878;9.394;2022-08-18T15:16:56;5.00;;;4.05;;
10467;SDS011;5281;48.878;9.394;2022-08-18T15:19:24;6.60;;;4.20;;
10467;SDS011;5281;48.878;9.394;2022-08-18T15:21:51;6.80;;;4.40;;
10467;SDS011;5281;48.878;9.394;2022-08-18T15:24:38;6.43;;;4.25;;
10467;SDS011;5281;48.878;9.394;2022-08-18T15:27:28;5.32;;;3.83;;
10467;SDS011;5281;48.878;9.394;2022-08-18T15:29:56;4.38;;;3.95;;
10467;SDS011;5281;48.878;9.394;2022-08-18T15:32:23;6.28;;;4.20;;
10467;SDS011;5281;48.878;9.394;2022-08-18T15:34:51;5.90;;;4.13;;
10467;SDS011;5281;48.878;9.394;2022-08-18T15:37:18;6.80;;;4.20;;
10467;SDS011;5281;48.878;9.394;2022-08-18T15:39:45;6.50;;;4.10;;
10467;SDS011;5281;48.878;9.394;2022-08-18T15:42:12;7.03;;;5.72;;
10467;SDS011;5281;48.878;9.394;2022-08-18T15:44:39;10.38;;;6.18;;
10467;SDS011;5281;48.878;9.394;2022-08-18T15:47:06;4.75;;;4.22;;
10467;SDS011;5281;48.878;9.394;2022-08-18T15:49:33;5.15;;;4.65;;
10467;SDS011;5281;48.878;9.394;2022-08-18T15:52:01;5.18;;;4.68;;
10467;SDS011;5281;48.878;9.394;2022-08-18T15:54:28;5.32;;;4.82;;
10467;SDS011;5281;48.878;9.394;2022-08-18T15:56:55;5.88;;;4.13;;